createdAt,value
2022-11-17T00:59:42.497Z,1.55
2022-11-17T01:11:41.365Z,1.60
2022-11-17T01:27:05.575Z,1.15
2022-11-17T01:42:38.502Z,0.95
2022-11-17T01:57:35.176Z,1.20
2022-11-17T02:00:39.777Z,1.20
2022-11-17T02:03:08.538Z,1.20
2022-11-17T02:15:04.956Z,0.90
2022-11-17T02:31:28.761Z,0.68
2022-11-17T02:58:04.608Z,0.80
2022-11-17T03:19:01.514Z,1.27
2022-11-17T03:48:30.684Z,1.58
2022-11-17T03:52:08.778Z,1.75
2022-11-17T03:54:56.927Z,1.60
2022-11-17T03:57:43.601Z,1.55
2022-11-17T04:00:58.810Z,1.60
2022-11-17T04:09:07.800Z,2.10
2022-11-17T04:15:31.633Z,1.70
2022-11-17T04:21:15.353Z,1.70
2022-11-17T04:43:49.569Z,1.88
2022-11-17T04:58:59.679Z,1.38
2022-11-17T05:01:34.176Z,1.33
2022-11-17T05:07:01.011Z,1.65
2022-11-17T05:10:19.796Z,1.20
2022-11-17T05:13:41.726Z,1.25
2022-11-17T05:16:55.935Z,1.50
2022-11-17T06:09:00.632Z,1.40
2022-11-17T06:17:49.431Z,1.27
2022-11-17T06:20:28.828Z,1.33
2022-11-17T06:54:49.961Z,1.20
2022-11-17T08:10:46.139Z,0.68
2022-11-17T08:16:38.157Z,0.80
2022-11-17T08:29:17.411Z,0.90
2022-11-17T08:38:04.121Z,0.60
2022-11-17T08:48:21.530Z,0.80
2022-11-17T08:50:48.774Z,0.90
2022-11-17T08:53:19.527Z,1.00
2022-11-17T08:58:18.771Z,0.70
2022-11-17T09:00:54.039Z,0.90
2022-11-17T09:23:13.857Z,1.00
2022-11-17T09:40:44.987Z,1.38
2022-11-17T09:48:38.980Z,1.00
2022-11-17T09:51:09.576Z,1.48
2022-11-17T09:54:19.901Z,1.30
2022-11-17T09:56:54.459Z,1.23
2022-11-17T09:59:37.188Z,1.20
2022-11-17T10:02:15.304Z,1.02
2022-11-17T10:04:58.555Z,1.00
2022-11-17T10:07:31.026Z,1.00
2022-11-17T10:15:50.515Z,1.10
2022-11-17T10:21:09.032Z,1.35
2022-11-17T10:29:33.497Z,0.98
2022-11-17T10:38:23.749Z,1.00
2022-11-17T10:41:26.144Z,1.30
2022-11-17T10:44:02.156Z,1.00
2022-11-17T10:46:41.568Z,1.20
2022-11-17T10:49:25.779Z,1.20
2022-11-17T10:52:19.923Z,1.23
2022-11-17T13:18:45.948Z,1.75
2022-11-17T13:32:13.210Z,1.90
2022-11-17T13:34:57.590Z,1.92
2022-11-17T13:37:37.487Z,2.00
2022-11-17T13:40:22.312Z,2.00
2022-11-17T13:42:50.652Z,1.95
2022-11-17T13:55:06.936Z,1.90
2022-11-17T13:57:33.709Z,1.63
2022-11-17T14:03:32.591Z,1.70
2022-11-17T14:05:59.678Z,1.83
2022-11-17T14:08:32.175Z,1.63
2022-11-17T14:11:26.458Z,1.63
2022-11-17T14:13:59.303Z,1.70
2022-11-17T14:16:29.425Z,1.83
2022-11-17T14:18:59.194Z,1.48
2022-11-17T14:21:26.950Z,1.70
2022-11-17T14:24:06.277Z,1.90
2022-11-17T14:26:33.493Z,1.27
2022-11-17T14:29:05.389Z,1.58
2022-11-17T14:31:33.283Z,1.60
2022-11-17T14:34:01.985Z,2.35
2022-11-17T14:36:29.495Z,1.80
2022-11-17T14:38:56.444Z,1.77
2022-11-17T14:41:23.393Z,1.35
2022-11-17T14:43:52.033Z,2.13
2022-11-17T14:46:23.629Z,1.77
2022-11-17T14:48:51.351Z,2.17
2022-11-17T14:51:18.676Z,1.98
2022-11-17T14:53:46.573Z,1.92
2022-11-17T14:56:16.055Z,2.15
2022-11-17T14:58:43.218Z,2.85
2022-11-17T15:01:17.300Z,2.28
2022-11-17T15:03:45.015Z,2.65
2022-11-17T15:06:19.536Z,2.53
2022-11-17T15:08:48.580Z,2.35
2022-11-17T15:11:17.633Z,2.63
2022-11-17T15:13:44.660Z,2.60
2022-11-17T15:16:12.327Z,2.53
2022-11-17T15:18:39.210Z,2.53
2022-11-17T15:21:10.359Z,2.28
2022-11-17T15:23:39.445Z,1.90
2022-11-17T15:26:08.694Z,2.22
2022-11-17T15:28:36.334Z,2.20
2022-11-17T15:31:16.750Z,1.92
2022-11-17T15:33:46.133Z,2.08
2022-11-17T15:36:19.350Z,1.90
2022-11-17T15:38:48.233Z,2.20
2022-11-17T15:41:16.346Z,1.92
2022-11-17T15:43:45.451Z,2.00
2022-11-17T15:46:16.118Z,1.65
2022-11-17T15:48:48.770Z,2.38
2022-11-17T15:51:36.055Z,2.08
2022-11-17T15:54:04.030Z,2.30
2022-11-17T15:56:36.932Z,2.20
2022-11-17T15:59:06.204Z,2.22
2022-11-17T16:01:35.563Z,2.15
2022-11-17T16:04:08.279Z,2.53
2022-11-17T16:06:37.400Z,2.90
2022-11-17T16:09:05.161Z,2.80
2022-11-17T16:11:32.050Z,2.70
2022-11-17T16:14:00.991Z,2.40
2022-11-17T16:16:30.837Z,2.67
2022-11-17T16:18:58.231Z,2.58
2022-11-17T16:21:25.654Z,2.80
2022-11-17T16:23:54.993Z,2.72
2022-11-17T16:26:23.304Z,2.83
2022-11-17T16:28:55.537Z,2.63
2022-11-17T16:31:24.729Z,3.08
2022-11-17T16:33:54.302Z,3.25
2022-11-17T16:36:23.097Z,3.05
2022-11-17T16:39:01.504Z,3.22
2022-11-17T16:41:37.488Z,2.80
2022-11-17T16:44:17.680Z,2.90
2022-11-17T16:46:46.865Z,3.60
2022-11-17T16:49:16.362Z,3.10
2022-11-17T16:51:51.963Z,3.22
2022-11-17T16:54:19.350Z,3.33
2022-11-17T16:56:46.561Z,3.05
2022-11-17T16:59:14.383Z,3.67
2022-11-17T17:01:41.400Z,3.30
2022-11-17T17:04:10.344Z,3.67
2022-11-17T17:06:41.050Z,3.60
2022-11-17T17:11:36.534Z,3.65
2022-11-17T17:14:05.648Z,3.25
2022-11-17T17:16:33.956Z,3.95
2022-11-17T17:19:04.344Z,3.80
2022-11-17T17:21:31.421Z,3.35
2022-11-17T17:23:58.387Z,3.67
2022-11-17T17:26:27.748Z,3.33
2022-11-17T17:28:56.695Z,3.70
2022-11-17T17:31:25.561Z,3.42
2022-11-17T17:33:53.008Z,3.33
2022-11-17T17:36:25.032Z,3.20
2022-11-17T17:38:56.040Z,3.40
2022-11-17T17:41:26.159Z,3.30
2022-11-17T17:44:04.232Z,3.23
2022-11-17T17:46:33.995Z,3.90
2022-11-17T17:49:00.977Z,3.17
2022-11-17T17:51:29.117Z,3.47
2022-11-17T17:54:00.988Z,3.65
2022-11-17T17:56:28.670Z,3.60
2022-11-17T17:58:56.610Z,3.63
2022-11-17T18:01:33.207Z,3.20
2022-11-17T18:04:04.693Z,4.00
2022-11-17T18:06:39.657Z,4.00
2022-11-17T18:09:09.049Z,4.55
2022-11-17T18:11:35.901Z,3.70
2022-11-17T18:14:03.651Z,4.10
2022-11-17T18:16:33.126Z,3.47
2022-11-17T18:19:03.023Z,4.30
2022-11-17T18:21:30.250Z,4.25
2022-11-17T18:23:59.024Z,4.13
2022-11-17T18:26:31.429Z,3.95
2022-11-17T18:29:00.383Z,3.78
2022-11-17T18:31:29.979Z,3.72
2022-11-17T18:34:00.587Z,4.13
2022-11-17T18:36:28.222Z,4.22
2022-11-17T18:38:56.748Z,3.65
2022-11-17T18:41:23.726Z,3.95
2022-11-17T18:43:50.513Z,3.90
2022-11-17T18:46:20.219Z,4.65
2022-11-17T18:48:48.735Z,4.30
2022-11-17T18:51:20.000Z,4.88
2022-11-17T18:53:47.897Z,4.13
2022-11-17T18:56:17.262Z,4.28
2022-11-17T18:58:44.763Z,4.70
2022-11-17T19:01:30.915Z,4.40
2022-11-17T19:04:02.623Z,4.80
2022-11-17T19:06:30.059Z,4.22
2022-11-17T19:09:00.605Z,4.88
2022-11-17T19:11:30.766Z,4.18
2022-11-17T19:13:59.309Z,4.90
2022-11-17T19:16:26.653Z,4.70
2022-11-17T19:18:55.790Z,4.57
2022-11-17T19:21:27.901Z,4.20
2022-11-17T19:23:58.299Z,4.00
2022-11-17T19:26:30.540Z,4.72
2022-11-17T19:29:02.929Z,4.68
2022-11-17T19:31:30.379Z,4.28
2022-11-17T19:33:57.956Z,4.22
2022-11-17T19:36:27.315Z,4.90
2022-11-17T19:38:56.153Z,4.85
2022-11-17T19:41:28.461Z,4.28
2022-11-17T19:43:56.774Z,3.83
2022-11-17T19:46:25.281Z,4.43
2022-11-17T19:48:52.410Z,4.22
2022-11-17T19:51:21.767Z,4.82
2022-11-17T19:53:51.799Z,4.53
2022-11-17T19:56:19.172Z,4.35
2022-11-17T19:58:46.874Z,4.95
2022-11-17T20:01:25.320Z,4.47
2022-11-17T20:03:52.625Z,4.28
2022-11-17T20:06:22.162Z,4.93
2022-11-17T20:08:49.365Z,4.45
2022-11-17T20:11:19.643Z,4.32
2022-11-17T20:14:32.206Z,4.13
2022-11-17T20:16:59.161Z,5.10
2022-11-17T20:19:26.360Z,5.20
2022-11-17T20:22:06.222Z,4.38
2022-11-17T20:24:33.607Z,5.18
2022-11-17T20:27:26.404Z,5.32
2022-11-17T20:30:19.701Z,6.00
2022-11-17T20:40:41.107Z,4.93
2022-11-17T20:43:08.217Z,5.72
2022-11-17T20:45:38.072Z,5.72
2022-11-17T20:52:10.434Z,5.53
2022-11-17T20:55:55.592Z,5.60
2022-11-17T22:57:48.150Z,8.32
